createdAt,value
2019-03-30T00:02:25.426Z,10.60
2019-03-30T00:04:58.770Z,12.65
2019-03-30T00:07:31.666Z,11.15
2019-03-30T00:10:05.075Z,11.90
2019-03-30T00:12:38.767Z,12.50
2019-03-30T00:15:11.610Z,13.30
2019-03-30T00:17:45.526Z,11.35
2019-03-30T00:20:19.806Z,10.55
2019-03-30T00:22:53.366Z,9.80
2019-03-30T00:25:26.446Z,9.60
2019-03-30T00:28:00.125Z,10.20
2019-03-30T00:30:34.006Z,9.78
2019-03-30T00:33:07.766Z,8.75
2019-03-30T00:35:40.866Z,10.30
2019-03-30T00:38:14.886Z,9.25
2019-03-30T00:40:48.006Z,10.15
2019-03-30T00:43:21.625Z,8.80
2019-03-30T00:45:55.425Z,12.82
2019-03-30T00:48:29.566Z,9.00
2019-03-30T00:51:03.633Z,10.45
2019-03-30T00:53:37.013Z,10.38
2019-03-30T00:56:10.093Z,9.65
2019-03-30T00:58:43.674Z,7.60
2019-03-30T01:01:16.713Z,9.63
2019-03-30T01:03:49.276Z,8.38
2019-03-30T01:06:22.453Z,8.95
2019-03-30T01:08:55.593Z,8.78
2019-03-30T01:11:29.115Z,8.45
2019-03-30T01:14:01.553Z,8.48
2019-03-30T01:16:35.514Z,8.58
2019-03-30T01:19:09.053Z,9.83
2019-03-30T01:21:42.313Z,8.38
2019-03-30T01:24:15.273Z,8.13
2019-03-30T01:26:49.192Z,10.30
2019-03-30T01:29:22.933Z,8.40
2019-03-30T01:31:56.475Z,7.92
2019-03-30T01:34:29.697Z,7.45
2019-03-30T01:37:03.276Z,7.30
2019-03-30T01:39:36.776Z,8.13
2019-03-30T01:42:10.756Z,7.90
2019-03-30T01:44:44.077Z,8.45
2019-03-30T01:47:17.836Z,8.30
2019-03-30T01:49:51.638Z,7.80
2019-03-30T01:52:25.296Z,7.00
2019-03-30T01:54:58.816Z,6.28
2019-03-30T01:57:32.079Z,6.83
2019-03-30T02:00:05.835Z,6.72
2019-03-30T02:02:38.855Z,7.12
2019-03-30T02:05:12.755Z,6.70
2019-03-30T02:07:46.314Z,6.70
2019-03-30T02:10:30.914Z,6.20
2019-03-30T02:13:05.435Z,8.53
2019-03-30T02:15:38.917Z,7.08
2019-03-30T02:18:11.955Z,8.88
2019-03-30T02:20:48.136Z,9.03
2019-03-30T02:23:21.657Z,10.90
2019-03-30T02:25:54.897Z,15.70
2019-03-30T02:28:28.475Z,15.28
2019-03-30T02:31:02.014Z,14.13
2019-03-30T02:33:34.476Z,10.95
2019-03-30T02:36:07.278Z,13.00
2019-03-30T02:38:40.935Z,10.38
2019-03-30T02:41:14.796Z,10.68
2019-03-30T02:43:47.897Z,9.20
2019-03-30T02:46:21.137Z,14.20
2019-03-30T02:48:55.255Z,13.93
2019-03-30T02:51:29.196Z,9.08
2019-03-30T02:54:02.401Z,8.65
2019-03-30T02:56:36.282Z,9.03
2019-03-30T02:59:09.550Z,8.95
2019-03-30T03:01:43.242Z,9.23
2019-03-30T03:04:16.741Z,11.90
2019-03-30T03:06:50.682Z,11.75
2019-03-30T03:09:23.763Z,8.95
2019-03-30T03:11:57.684Z,9.63
2019-03-30T03:14:30.541Z,9.25
2019-03-30T03:17:03.022Z,10.38
2019-03-30T03:19:36.363Z,9.05
2019-03-30T03:22:09.762Z,8.70
2019-03-30T03:24:43.454Z,8.83
2019-03-30T03:27:17.448Z,7.60
2019-03-30T03:29:50.823Z,7.80
2019-03-30T03:32:24.263Z,7.47
2019-03-30T03:34:57.723Z,7.47
2019-03-30T03:37:44.825Z,7.05
2019-03-30T03:40:07.421Z,8.18
2019-03-30T03:42:40.404Z,6.70
2019-03-30T03:45:13.841Z,6.92
2019-03-30T03:47:46.802Z,7.05
2019-03-30T03:50:48.782Z,8.33
2019-03-30T03:53:21.945Z,8.93
2019-03-30T03:55:55.762Z,7.78
2019-03-30T03:58:30.564Z,7.47
2019-03-30T04:01:05.205Z,6.55
2019-03-30T04:03:42.105Z,7.00
2019-03-30T04:06:15.601Z,7.40
2019-03-30T04:08:51.123Z,7.40
2019-03-30T04:11:25.062Z,10.00
2019-03-30T04:13:59.281Z,8.00
2019-03-30T04:16:32.843Z,7.97
2019-03-30T04:19:06.364Z,7.72
2019-03-30T04:21:44.328Z,7.60
2019-03-30T04:24:14.885Z,8.00
2019-03-30T04:26:47.602Z,7.65
2019-03-30T04:29:21.302Z,7.80
2019-03-30T04:31:54.982Z,7.25
2019-03-30T04:34:28.701Z,7.53
2019-03-30T04:37:02.403Z,7.70
2019-03-30T04:39:36.483Z,9.65
2019-03-30T04:42:10.203Z,7.33
2019-03-30T04:44:42.861Z,9.23
2019-03-30T04:47:17.281Z,8.83
2019-03-30T04:49:50.961Z,8.90
2019-03-30T04:52:25.121Z,9.25
2019-03-30T04:54:58.162Z,8.78
2019-03-30T04:57:31.662Z,8.30
2019-03-30T05:00:04.522Z,10.10
2019-03-30T05:02:37.683Z,9.93
2019-03-30T05:05:11.385Z,9.18
2019-03-30T05:07:44.561Z,7.85
2019-03-30T05:10:17.581Z,8.95
2019-03-30T05:12:50.868Z,9.05
2019-03-30T05:15:24.842Z,13.05
2019-03-30T05:17:58.685Z,10.18
2019-03-30T05:20:32.502Z,9.80
2019-03-30T05:23:06.765Z,10.03
2019-03-30T05:25:40.088Z,15.45
2019-03-30T05:28:13.942Z,9.60
2019-03-30T05:30:47.482Z,10.15
2019-03-30T05:33:21.101Z,8.93
2019-03-30T05:35:54.901Z,8.85
2019-03-30T05:38:28.662Z,9.83
2019-03-30T05:41:02.125Z,11.22
2019-03-30T05:43:35.941Z,9.80
2019-03-30T05:46:10.201Z,9.88
2019-03-30T05:48:43.581Z,10.78
2019-03-30T05:51:17.522Z,11.38
2019-03-30T05:53:51.722Z,10.78
2019-03-30T05:56:24.701Z,11.12
2019-03-30T05:58:58.082Z,10.60
2019-03-30T06:01:31.622Z,15.20
2019-03-30T06:04:04.842Z,10.60
2019-03-30T06:06:37.322Z,10.18
2019-03-30T06:09:11.942Z,11.93
2019-03-30T06:11:44.984Z,10.45
2019-03-30T06:14:18.262Z,12.60
2019-03-30T06:16:51.064Z,15.28
2019-03-30T06:19:25.374Z,11.93
2019-03-30T06:21:59.162Z,12.25
2019-03-30T06:24:32.722Z,12.53
2019-03-30T06:27:06.182Z,14.38
2019-03-30T06:29:38.802Z,12.03
2019-03-30T06:32:10.241Z,13.55
2019-03-30T06:34:43.321Z,14.28
2019-03-30T06:37:16.301Z,12.15
2019-03-30T06:39:49.182Z,12.07
2019-03-30T06:42:22.683Z,11.80
2019-03-30T06:44:56.102Z,13.90
2019-03-30T06:47:29.861Z,14.53
2019-03-30T06:50:03.823Z,13.72
2019-03-30T06:52:37.021Z,12.43
2019-03-30T06:55:12.001Z,11.68
2019-03-30T06:57:45.525Z,12.58
2019-03-30T07:00:19.900Z,11.95
2019-03-30T07:02:53.542Z,14.20
2019-03-30T07:05:27.163Z,12.90
2019-03-30T07:08:00.322Z,13.93
2019-03-30T07:10:38.267Z,12.25
2019-03-30T07:13:10.162Z,12.35
2019-03-30T07:15:47.127Z,14.03
2019-03-30T07:18:20.562Z,13.62
2019-03-30T07:20:54.003Z,12.85
2019-03-30T07:23:27.922Z,14.23
2019-03-30T07:26:01.582Z,14.13
2019-03-30T07:28:35.762Z,14.33
2019-03-30T07:31:09.367Z,15.70
2019-03-30T07:33:42.583Z,14.35
2019-03-30T07:36:16.301Z,13.72
2019-03-30T07:38:50.161Z,12.58
2019-03-30T07:41:23.122Z,11.85
2019-03-30T07:43:56.462Z,15.95
2019-03-30T07:46:29.221Z,12.75
2019-03-30T07:49:02.121Z,12.55
2019-03-30T07:51:35.642Z,10.93
2019-03-30T07:54:08.602Z,13.35
2019-03-30T07:56:41.941Z,12.45
2019-03-30T07:59:15.241Z,13.25
2019-03-30T08:01:47.761Z,13.15
2019-03-30T08:04:20.446Z,12.10
2019-03-30T08:06:54.642Z,12.60
2019-03-30T08:09:27.923Z,11.10
2019-03-30T08:12:00.692Z,11.22
2019-03-30T08:14:32.808Z,11.95
2019-03-30T08:17:06.462Z,10.63
2019-03-30T08:19:40.002Z,10.00
2019-03-30T08:22:13.862Z,11.35
2019-03-30T08:24:47.183Z,10.50
2019-03-30T08:27:19.903Z,10.60
2019-03-30T08:29:52.789Z,11.00
2019-03-30T08:32:26.082Z,10.20
2019-03-30T08:34:59.146Z,9.93
2019-03-30T08:37:32.601Z,10.70
2019-03-30T08:40:05.922Z,10.85
2019-03-30T08:42:39.561Z,11.73
2019-03-30T08:45:12.402Z,12.45
2019-03-30T08:47:44.661Z,11.08
2019-03-30T08:50:17.830Z,13.35
2019-03-30T08:52:51.431Z,23.38
2019-03-30T08:55:25.292Z,13.40
2019-03-30T08:57:58.613Z,15.08
2019-03-30T09:00:41.854Z,13.93
2019-03-30T09:03:14.955Z,14.87
2019-03-30T09:05:48.597Z,16.60
2019-03-30T09:08:22.335Z,17.35
2019-03-30T09:10:55.655Z,15.38
2019-03-30T09:13:28.593Z,16.97
2019-03-30T09:16:02.093Z,16.65
2019-03-30T09:18:35.494Z,16.12
2019-03-30T09:21:08.772Z,18.15
2019-03-30T09:23:41.853Z,17.40
2019-03-30T09:26:16.650Z,17.67
2019-03-30T09:28:48.972Z,13.72
2019-03-30T09:31:21.532Z,15.13
2019-03-30T09:33:54.573Z,18.60
2019-03-30T09:36:27.853Z,17.48
2019-03-30T09:39:00.526Z,16.00
2019-03-30T09:41:34.012Z,16.65
2019-03-30T09:44:06.732Z,17.32
2019-03-30T09:46:39.675Z,16.42
2019-03-30T09:49:13.632Z,14.43
2019-03-30T09:51:47.671Z,15.28
2019-03-30T09:54:24.008Z,16.23
2019-03-30T09:56:55.834Z,17.02
2019-03-30T09:59:29.019Z,17.17
2019-03-30T10:02:02.356Z,16.32
2019-03-30T10:04:35.757Z,17.55
2019-03-30T10:07:08.996Z,16.55
2019-03-30T10:09:42.329Z,16.52
2019-03-30T10:12:16.418Z,19.73
2019-03-30T10:14:50.477Z,17.55
2019-03-30T10:17:23.676Z,16.85
2019-03-30T10:20:04.400Z,14.20
2019-03-30T10:22:32.517Z,17.35
2019-03-30T10:25:06.137Z,19.45
2019-03-30T10:27:40.716Z,15.65
2019-03-30T10:30:14.536Z,14.98
2019-03-30T10:32:47.277Z,16.50
2019-03-30T10:35:20.737Z,14.87
2019-03-30T10:37:53.694Z,19.42
2019-03-30T10:40:27.314Z,20.30
2019-03-30T10:43:00.614Z,18.23
2019-03-30T10:45:33.535Z,17.50
2019-03-30T10:48:06.917Z,18.23
2019-03-30T10:50:40.436Z,23.80
2019-03-30T10:53:13.174Z,18.55
2019-03-30T10:55:46.896Z,19.48
2019-03-30T10:58:20.234Z,19.65
2019-03-30T11:00:53.549Z,18.48
2019-03-30T11:03:27.140Z,19.37
2019-03-30T11:06:00.965Z,16.80
2019-03-30T11:08:34.579Z,17.90
2019-03-30T11:11:08.112Z,15.10
2019-03-30T11:13:40.714Z,17.13
2019-03-30T11:16:13.229Z,16.40
2019-03-30T11:18:46.918Z,19.63
2019-03-30T11:21:20.511Z,17.37
2019-03-30T11:23:53.896Z,19.98
2019-03-30T11:26:27.989Z,18.17
2019-03-30T11:29:00.798Z,18.00
2019-03-30T11:31:33.709Z,19.13
2019-03-30T11:34:06.330Z,16.23
2019-03-30T11:36:39.957Z,20.70
2019-03-30T11:39:12.405Z,14.50
2019-03-30T11:41:45.337Z,19.70
2019-03-30T11:44:18.741Z,17.87
2019-03-30T11:46:52.606Z,13.85
2019-03-30T11:49:26.621Z,14.93
2019-03-30T11:52:00.281Z,21.90
2019-03-30T11:54:34.388Z,21.20
2019-03-30T11:57:07.203Z,20.80
2019-03-30T11:59:40.237Z,20.65
2019-03-30T12:02:26.978Z,23.70
2019-03-30T12:04:48.165Z,23.57
2019-03-30T12:07:21.868Z,21.02
2019-03-30T12:09:54.946Z,24.40
2019-03-30T12:12:28.469Z,23.60
2019-03-30T12:15:01.785Z,23.07
2019-03-30T12:17:35.449Z,23.17
2019-03-30T12:20:08.265Z,25.00
2019-03-30T12:22:41.314Z,23.40
2019-03-30T12:25:14.797Z,24.57
2019-03-30T12:27:47.755Z,25.47
2019-03-30T12:30:21.416Z,22.53
2019-03-30T12:32:55.173Z,21.30
2019-03-30T12:35:28.613Z,20.67
2019-03-30T12:38:02.356Z,21.90
2019-03-30T12:40:35.759Z,25.13
2019-03-30T12:43:09.376Z,19.70
2019-03-30T12:45:42.317Z,23.37
2019-03-30T12:48:15.379Z,23.63
2019-03-30T12:50:48.240Z,23.83
2019-03-30T12:53:21.361Z,19.00
2019-03-30T12:55:54.944Z,22.67
2019-03-30T12:58:28.199Z,23.80
2019-03-30T13:01:01.961Z,23.40
2019-03-30T13:03:35.380Z,24.33
2019-03-30T13:06:08.960Z,22.30
2019-03-30T13:08:42.480Z,26.83
2019-03-30T13:11:15.005Z,25.40
2019-03-30T13:13:47.934Z,21.90
2019-03-30T13:16:21.610Z,21.83
2019-03-30T13:18:54.410Z,23.77
2019-03-30T13:21:27.011Z,23.93
2019-03-30T13:24:00.253Z,21.20
2019-03-30T13:26:33.511Z,23.57
2019-03-30T13:29:07.371Z,23.97
2019-03-30T13:31:40.911Z,26.43
2019-03-30T13:34:14.410Z,23.43
2019-03-30T13:36:48.030Z,23.00
2019-03-30T13:39:21.895Z,22.80
2019-03-30T13:41:55.770Z,27.50
2019-03-30T13:44:29.071Z,26.53
2019-03-30T13:47:02.229Z,25.17
2019-03-30T13:49:35.304Z,25.23
2019-03-30T13:52:08.250Z,26.23
2019-03-30T13:54:41.970Z,25.17
2019-03-30T13:57:15.150Z,27.47
2019-03-30T13:59:48.890Z,25.77
2019-03-30T14:02:22.250Z,26.73
2019-03-30T14:04:55.453Z,26.07
2019-03-30T14:07:29.733Z,25.50
2019-03-30T14:10:03.130Z,27.00
2019-03-30T14:12:36.750Z,27.70
2019-03-30T14:15:11.071Z,30.63
2019-03-30T14:17:44.150Z,24.80
2019-03-30T14:20:16.930Z,25.50
2019-03-30T14:22:49.772Z,26.03
2019-03-30T14:25:22.631Z,26.10
2019-03-30T14:27:55.670Z,26.90
2019-03-30T14:30:29.730Z,27.37
2019-03-30T14:33:03.034Z,25.87
2019-03-30T14:35:36.771Z,28.07
2019-03-30T14:38:10.390Z,23.73
2019-03-30T14:40:44.750Z,23.10
2019-03-30T14:43:18.330Z,24.77
2019-03-30T14:45:52.272Z,26.83
2019-03-30T14:48:26.010Z,24.60
2019-03-30T14:50:59.445Z,26.63
2019-03-30T14:53:32.390Z,23.23
2019-03-30T14:56:05.410Z,22.70
2019-03-30T14:58:38.337Z,24.97
2019-03-30T15:01:11.928Z,19.73
2019-03-30T15:03:46.170Z,18.83
2019-03-30T15:06:19.790Z,22.03
2019-03-30T15:08:53.194Z,16.53
2019-03-30T15:11:26.629Z,20.70
2019-03-30T15:14:00.191Z,18.27
2019-03-30T15:16:33.649Z,21.90
2019-03-30T15:19:07.570Z,20.73
2019-03-30T15:21:41.850Z,17.70
2019-03-30T15:24:15.190Z,19.97
2019-03-30T15:26:59.345Z,19.77
2019-03-30T15:29:23.749Z,23.47
2019-03-30T15:31:56.990Z,17.80
2019-03-30T15:34:31.726Z,18.53
2019-03-30T15:37:07.471Z,22.27
2019-03-30T15:39:40.230Z,19.53
2019-03-30T15:42:13.151Z,18.30
2019-03-30T15:44:45.910Z,23.10
2019-03-30T15:47:19.310Z,16.63
2019-03-30T15:49:53.110Z,17.20
2019-03-30T15:52:26.351Z,21.43
2019-03-30T15:54:59.271Z,23.27
2019-03-30T15:57:32.110Z,15.40
2019-03-30T16:00:07.085Z,17.40
2019-03-30T16:02:40.890Z,23.37
2019-03-30T16:05:15.718Z,18.93
2019-03-30T16:07:48.730Z,17.87
2019-03-30T16:10:21.691Z,14.67
2019-03-30T16:12:54.791Z,16.80
2019-03-30T16:15:27.730Z,18.17
2019-03-30T16:18:01.410Z,16.43
2019-03-30T16:20:33.948Z,15.73
2019-03-30T16:23:06.811Z,13.53
2019-03-30T16:25:39.830Z,16.17
2019-03-30T16:28:13.690Z,15.40
2019-03-30T16:30:46.832Z,14.50
2019-03-30T16:33:20.790Z,15.40
2019-03-30T16:35:54.170Z,15.30
2019-03-30T16:38:28.091Z,16.00
2019-03-30T16:41:01.770Z,18.93
2019-03-30T16:43:35.771Z,19.60
2019-03-30T16:46:09.271Z,17.03
2019-03-30T16:48:42.971Z,26.47
2019-03-30T16:51:16.773Z,18.17
2019-03-30T16:53:51.069Z,16.30
2019-03-30T16:56:24.190Z,17.07
2019-03-30T16:58:58.169Z,13.60
2019-03-30T17:01:31.530Z,16.10
2019-03-30T17:04:04.971Z,16.97
2019-03-30T17:06:37.491Z,20.60
2019-03-30T17:09:11.351Z,16.00
2019-03-30T17:11:44.271Z,17.50
2019-03-30T17:14:17.369Z,29.33
2019-03-30T17:16:50.589Z,12.53
2019-03-30T17:19:24.489Z,14.10
2019-03-30T17:21:57.072Z,12.80
2019-03-30T17:24:30.650Z,17.00
2019-03-30T17:27:04.050Z,17.60
2019-03-30T17:29:37.709Z,19.47
2019-03-30T17:32:11.189Z,17.30
2019-03-30T17:34:45.052Z,25.87
2019-03-30T17:37:18.990Z,15.63
2019-03-30T17:39:52.569Z,17.87
2019-03-30T17:42:25.269Z,21.70
2019-03-30T17:44:58.371Z,19.40
2019-03-30T17:47:31.769Z,19.43
2019-03-30T17:50:05.170Z,18.47
2019-03-30T17:52:38.236Z,17.70
2019-03-30T17:55:11.209Z,16.10
2019-03-30T17:57:43.930Z,20.10
2019-03-30T18:00:19.510Z,20.43
2019-03-30T18:02:52.550Z,16.40
2019-03-30T18:05:25.430Z,18.37
2019-03-30T18:08:01.675Z,17.10
2019-03-30T18:10:33.910Z,16.13
2019-03-30T18:13:06.550Z,13.97
2019-03-30T18:15:40.183Z,13.50
2019-03-30T18:18:13.410Z,12.57
2019-03-30T18:20:47.012Z,9.13
2019-03-30T18:23:20.731Z,14.07
2019-03-30T18:25:53.950Z,9.47
2019-03-30T18:28:27.810Z,9.60
2019-03-30T18:31:01.470Z,7.43
2019-03-30T18:33:35.210Z,11.87
2019-03-30T18:36:08.465Z,10.97
2019-03-30T18:38:42.930Z,30.23
2019-03-30T18:41:17.010Z,17.20
2019-03-30T18:43:50.791Z,12.87
2019-03-30T18:46:23.610Z,10.37
2019-03-30T18:48:56.670Z,8.93
2019-03-30T18:51:31.331Z,9.90
2019-03-30T18:54:05.051Z,15.23
2019-03-30T18:56:38.157Z,11.53
2019-03-30T18:59:10.910Z,10.53
2019-03-30T19:01:45.030Z,14.20
2019-03-30T19:04:18.309Z,12.40
2019-03-30T19:06:51.910Z,12.80
2019-03-30T19:09:24.311Z,12.13
2019-03-30T19:11:57.431Z,11.70
2019-03-30T19:14:30.731Z,11.60
2019-03-30T19:17:04.010Z,12.70
2019-03-30T19:19:37.414Z,11.17
2019-03-30T19:22:10.170Z,13.23
2019-03-30T19:24:43.410Z,13.43
2019-03-30T19:27:16.794Z,14.30
2019-03-30T19:29:50.651Z,11.87
2019-03-30T19:32:23.990Z,17.70
2019-03-30T19:34:58.170Z,13.93
2019-03-30T19:37:32.370Z,9.73
2019-03-30T19:40:05.790Z,10.83
2019-03-30T19:42:38.755Z,10.73
2019-03-30T19:45:12.390Z,8.50
2019-03-30T19:47:45.930Z,9.53
2019-03-30T19:50:19.250Z,8.53
2019-03-30T19:52:52.190Z,10.50
2019-03-30T19:55:25.490Z,14.33
2019-03-30T19:57:58.349Z,13.43
2019-03-30T20:00:31.635Z,11.37
2019-03-30T20:03:04.211Z,14.13
2019-03-30T20:05:37.212Z,15.30
2019-03-30T20:08:12.500Z,14.53
2019-03-30T20:10:46.052Z,50.53
2019-03-30T20:13:19.101Z,10.25
2019-03-30T20:15:52.271Z,16.33
2019-03-30T20:18:25.910Z,13.07
2019-03-30T20:20:58.811Z,14.50
2019-03-30T20:23:31.751Z,12.33
2019-03-30T20:26:05.874Z,10.17
2019-03-30T20:28:39.709Z,16.87
2019-03-30T20:31:13.091Z,12.90
2019-03-30T20:33:45.850Z,17.55
2019-03-30T20:36:19.749Z,13.80
2019-03-30T20:38:53.370Z,16.70
2019-03-30T20:41:26.650Z,13.40
2019-03-30T20:44:00.210Z,15.35
2019-03-30T20:46:33.530Z,17.90
2019-03-30T20:49:07.191Z,17.50
2019-03-30T20:51:41.051Z,15.72
2019-03-30T20:54:14.793Z,17.80
2019-03-30T20:56:48.573Z,14.03
2019-03-30T20:59:21.910Z,17.98
2019-03-30T21:01:54.871Z,20.30
2019-03-30T21:04:27.870Z,15.95
2019-03-30T21:07:01.410Z,15.20
2019-03-30T21:09:34.974Z,20.27
2019-03-30T21:12:08.630Z,14.85
2019-03-30T21:14:41.530Z,18.62
2019-03-30T21:17:15.250Z,18.70
2019-03-30T21:19:48.890Z,14.43
2019-03-30T21:22:22.774Z,18.50
2019-03-30T21:24:56.712Z,17.85
2019-03-30T21:27:30.213Z,13.88
2019-03-30T21:30:04.411Z,18.55
2019-03-30T21:32:37.750Z,19.52
2019-03-30T21:35:11.750Z,14.85
2019-03-30T21:37:45.651Z,16.57
2019-03-30T21:40:19.311Z,19.75
2019-03-30T21:42:53.332Z,21.27
2019-03-30T21:45:26.792Z,19.60
2019-03-30T21:48:00.511Z,21.70
2019-03-30T21:50:34.252Z,18.85
2019-03-30T21:53:07.533Z,19.20
2019-03-30T21:55:40.410Z,21.90
2019-03-30T21:58:13.412Z,22.90
2019-03-30T22:00:46.335Z,29.23
2019-03-30T22:03:19.990Z,20.48
2019-03-30T22:05:53.252Z,20.25
2019-03-30T22:08:27.131Z,23.20
2019-03-30T22:11:01.051Z,21.62
2019-03-30T22:13:34.571Z,25.57
2019-03-30T22:16:08.392Z,22.65
2019-03-30T22:18:42.610Z,19.30
2019-03-30T22:21:16.576Z,19.77
2019-03-30T22:23:50.653Z,20.88
2019-03-30T22:26:24.973Z,16.55
2019-03-30T22:28:58.809Z,16.17
2019-03-30T22:31:31.869Z,17.77
2019-03-30T22:34:05.630Z,20.27
2019-03-30T22:36:39.029Z,19.50
2019-03-30T22:39:13.550Z,17.25
2019-03-30T22:41:47.270Z,18.07
2019-03-30T22:44:21.049Z,23.40
2019-03-30T22:46:54.789Z,19.25
2019-03-30T22:49:29.056Z,17.95
2019-03-30T22:52:03.129Z,17.27
2019-03-30T22:54:37.051Z,20.43
2019-03-30T22:57:10.329Z,24.67
2019-03-30T22:59:43.970Z,19.70
2019-03-30T23:02:17.612Z,15.72
2019-03-30T23:04:50.669Z,16.93
2019-03-30T23:07:24.310Z,17.87
2019-03-30T23:09:57.550Z,18.27
2019-03-30T23:12:30.650Z,15.48
2019-03-30T23:15:03.934Z,15.40
2019-03-30T23:17:36.730Z,17.00
2019-03-30T23:20:10.169Z,17.00
2019-03-30T23:22:44.410Z,16.97
2019-03-30T23:25:17.649Z,19.00
2019-03-30T23:27:51.195Z,18.70
2019-03-30T23:30:24.889Z,15.80
2019-03-30T23:32:59.050Z,16.75
2019-03-30T23:35:32.410Z,16.15
2019-03-30T23:38:05.709Z,15.65
2019-03-30T23:40:38.150Z,17.30
2019-03-30T23:43:11.350Z,18.65
2019-03-30T23:45:43.449Z,15.45
2019-03-30T23:48:17.290Z,17.50
2019-03-30T23:50:50.610Z,15.98
2019-03-30T23:53:24.470Z,16.75
2019-03-30T23:55:58.110Z,19.87
2019-03-30T23:58:30.754Z,16.97
